Time;durP1;ratioP1;P1;durP2;ratioP2;P2;SDS_P1;SDS_P2;PMS_P1;PMS_P2;Temp;Humidity;BMP_temperature;BMP_pressure;BME280_temperature;BME280_humidity;BME280_pressure;Samples;Min_cycle;Max_cycle;Signal;HPM_P1;HPM_P2
2021/12/04 00:02:40;;;;;;;24.35;10.50;;;;;;;-4.33;100.00;100300.78;6702041;26;34207;-82
2021/12/04 00:05:48;;;;;;;23.48;9.90;;;;;;;-4.43;100.00;100295.03;6701989;26;35066;-82
2021/12/04 00:08:55;;;;;;;26.20;10.27;;;;;;;-4.26;100.00;100285.94;6701811;26;34046;-82
2021/12/04 00:12:03;;;;;;;24.67;10.38;;;;;;;-4.22;100.00;100282.34;6702239;26;34010;-82
2021/12/04 00:15:06;;;;;;;26.60;10.65;;;;;;;-4.34;100.00;100283.59;6704567;26;36609;-82
2021/12/04 00:18:11;;;;;;;23.15;9.75;;;;;;;-4.37;100.00;100274.22;6704379;26;35401;-82
2021/12/04 00:21:14;;;;;;;23.85;10.32;;;;;;;-4.39;100.00;100276.00;6702168;26;34311;-82
2021/12/04 00:24:26;;;;;;;23.00;10.25;;;;;;;-4.34;100.00;100262.94;6701886;26;34414;-82
2021/12/04 00:27:36;;;;;;;27.75;10.45;;;;;;;-4.40;100.00;100269.12;6703722;26;34384;-82
2021/12/04 00:30:39;;;;;;;25.85;10.15;;;;;;;-4.48;100.00;100275.41;6704712;26;34079;-82
2021/12/04 00:33:45;;;;;;;24.52;10.38;;;;;;;-4.52;100.00;100264.34;6702748;26;34557;-82
2021/12/04 00:37:06;;;;;;;25.30;10.63;;;;;;;-4.50;100.00;100265.13;6703690;26;34628;-82
2021/12/04 00:50:11;;;;;;;23.95;10.40;;;;;;;-4.47;100.00;100272.81;6702778;26;34284;-82
2021/12/04 00:53:14;;;;;;;25.17;11.70;;;;;;;-4.51;100.00;100268.59;6704212;26;35360;-82
2021/12/04 00:56:17;;;;;;;26.77;11.45;;;;;;;-4.57;100.00;100261.88;6703192;26;34349;-82
2021/12/04 00:59:20;;;;;;;24.23;10.43;;;;;;;-4.48;100.00;100265.09;6702962;26;33912;-82
2021/12/04 01:02:23;;;;;;;24.73;11.05;;;;;;;-4.48;100.00;100271.09;6701817;26;34374;-82
2021/12/04 01:05:26;;;;;;;29.98;11.12;;;;;;;-4.53;100.00;100267.81;6701248;26;33934;-82
2021/12/04 01:08:29;;;;;;;26.67;10.90;;;;;;;-4.53;100.00;100265.22;6701861;26;33925;-82
2021/12/04 01:11:31;;;;;;;25.58;11.75;;;;;;;-4.51;100.00;100258.28;6701741;26;34301;-82
2021/12/04 01:14:42;;;;;;;25.17;11.30;;;;;;;-4.51;100.00;100250.53;6703106;26;35232;-82
2021/12/04 01:17:46;;;;;;;23.73;10.45;;;;;;;-4.45;100.00;100263.28;6702351;26;33610;-82
2021/12/04 01:20:49;;;;;;;23.92;10.35;;;;;;;-4.45;100.00;100270.16;6703218;26;34655;-82
2021/12/04 01:23:51;;;;;;;24.83;10.55;;;;;;;-4.50;100.00;100275.47;6701433;26;34629;-82
2021/12/04 01:26:55;;;;;;;27.10;10.95;;;;;;;-4.59;100.00;100268.00;6702472;26;34093;-82
2021/12/04 01:29:58;;;;;;;25.85;10.43;;;;;;;-4.66;100.00;100273.31;6705477;26;34633;-82
2021/12/04 01:33:01;;;;;;;22.25;9.95;;;;;;;-4.72;100.00;100273.53;6706126;26;34211;-82
2021/12/04 01:36:04;;;;;;;25.60;10.90;;;;;;;-4.65;100.00;100274.19;6701590;26;34762;-82
2021/12/04 01:39:08;;;;;;;27.05;10.45;;;;;;;-4.71;100.00;100275.22;6701958;26;34232;-82
2021/12/04 01:42:10;;;;;;;28.15;11.63;;;;;;;-4.73;100.00;100266.66;6701148;26;34150;-82
2021/12/04 01:45:18;;;;;;;32.78;13.07;;;;;;;-4.80;100.00;100262.59;6703452;26;34637;-82
2021/12/04 01:48:21;;;;;;;27.75;12.82;;;;;;;-4.81;100.00;100263.47;6700748;26;34481;-82
2021/12/04 01:51:25;;;;;;;31.20;12.75;;;;;;;-4.83;100.00;100270.41;6701048;26;34085;-82
2021/12/04 01:54:34;;;;;;;30.45;13.10;;;;;;;-4.93;100.00;100261.22;6701743;26;34402;-82
2021/12/04 01:57:38;;;;;;;32.60;14.50;;;;;;;-5.00;100.00;100257.97;6703661;26;34462;-82
2021/12/04 02:00:41;;;;;;;28.15;13.55;;;;;;;-5.02;100.00;100258.03;6702747;26;34581;-82
2021/12/04 02:03:44;;;;;;;33.90;14.87;;;;;;;-5.09;100.00;100247.91;6700685;26;34091;-82
2021/12/04 02:06:47;;;;;;;33.35;15.57;;;;;;;-5.08;100.00;100237.53;6700737;26;34210;-82
2021/12/04 02:09:50;;;;;;;32.42;14.45;;;;;;;-5.08;100.00;100245.28;6700505;26;34188;-82
2021/12/04 02:12:52;;;;;;;28.52;14.70;;;;;;;-5.10;100.00;100248.81;6700670;26;34637;-82
2021/12/04 02:15:56;;;;;;;30.42;13.85;;;;;;;-5.13;100.00;100247.16;6700580;26;34083;-82
2021/12/04 02:18:59;;;;;;;31.20;15.07;;;;;;;-5.19;100.00;100242.16;6700810;26;34210;-82
2021/12/04 02:22:05;;;;;;;29.52;13.90;;;;;;;-5.22;100.00;100242.22;6700683;26;33861;-82
2021/12/04 02:25:09;;;;;;;29.37;13.55;;;;;;;-5.23;100.00;100233.66;6680570;26;34385;-82
2021/12/04 02:28:14;;;;;;;27.50;13.65;;;;;;;-5.24;100.00;100233.72;6700460;26;34992;-82
2021/12/04 02:31:18;;;;;;;30.65;13.88;;;;;;;-5.27;100.00;100234.63;6700022;26;34283;-82
2021/12/04 02:34:22;;;;;;;27.98;13.65;;;;;;;-5.30;100.00;100225.25;6700803;26;34583;-83
2021/12/04 02:37:26;;;;;;;28.02;12.88;;;;;;;-5.34;100.00;100226.22;6700263;26;34481;-82
2021/12/04 02:40:30;;;;;;;30.80;13.48;;;;;;;-5.36;100.00;100212.53;6700735;26;34029;-82
2021/12/04 02:43:35;;;;;;;30.42;14.05;;;;;;;-5.34;100.00;100212.47;6700762;26;34597;-82
2021/12/04 02:46:37;;;;;;;25.35;12.73;;;;;;;-5.30;100.00;100220.09;6702198;26;35257;-82
2021/12/04 02:49:41;;;;;;;28.52;14.05;;;;;;;-5.32;100.00;100216.69;6703676;26;34718;-82
2021/12/04 02:52:47;;;;;;;29.92;13.20;;;;;;;-5.34;100.00;100218.47;6702013;26;34257;-82
2021/12/04 02:55:50;;;;;;;28.85;13.05;;;;;;;-5.38;100.00;100222.03;6705893;26;34212;-82
2021/12/04 02:59:00;;;;;;;30.30;14.00;;;;;;;-5.39;100.00;100212.63;6701927;26;34339;-82
2021/12/04 03:02:04;;;;;;;28.62;13.18;;;;;;;-5.40;100.00;100208.34;6700074;26;34792;-82
2021/12/04 03:05:12;;;;;;;30.20;13.05;;;;;;;-5.41;100.00;100201.50;6699302;26;34554;-82
2021/12/04 03:08:16;;;;;;;29.35;14.23;;;;;;;-5.45;100.00;100207.59;6703762;26;34487;-83
2021/12/04 03:11:19;;;;;;;30.37;13.40;;;;;;;-5.43;100.00;100211.00;6700379;26;34239;-82
2021/12/04 03:14:26;;;;;;;28.35;13.45;;;;;;;-5.49;100.00;100204.28;6701329;26;34118;-82
2021/12/04 03:17:28;;;;;;;30.33;14.02;;;;;;;-5.54;100.00;100208.72;6699428;26;35056;-82
2021/12/04 03:20:40;;;;;;;32.08;15.90;;;;;;;-5.50;100.00;100206.91;6700136;26;34437;-83
2021/12/04 03:23:54;;;;;;;29.00;13.70;;;;;;;-5.46;100.00;100198.22;6703224;26;34656;-82
2021/12/04 03:26:57;;;;;;;30.48;15.15;;;;;;;-5.35;100.00;100198.75;6705896;26;34766;-82
2021/12/04 03:30:12;;;;;;;32.50;15.35;;;;;;;-5.27;100.00;100206.25;6702459;26;35218;-82
2021/12/04 03:43:34;;;;;;;32.75;15.77;;;;;;;-5.25;100.00;100170.13;6663878;26;33851;-82
2021/12/04 03:46:37;;;;;;;31.48;14.00;;;;;;;-5.18;100.00;100161.31;6702020;26;34192;-82
2021/12/04 03:49:39;;;;;;;31.48;14.18;;;;;;;-5.19;100.00;100154.47;6700203;26;35287;-82
2021/12/04 03:52:43;;;;;;;32.33;14.32;;;;;;;-5.32;100.00;100147.06;6702248;26;34943;-82
2021/12/04 03:55:51;;;;;;;31.98;13.95;;;;;;;-5.31;100.00;100143.59;6704222;26;34285;-82
2021/12/04 03:58:55;;;;;;;28.35;13.02;;;;;;;-5.27;100.00;100145.22;6700934;26;34053;-82
2021/12/04 04:01:58;;;;;;;30.75;13.07;;;;;;;-5.37;100.00;100136.06;6701807;26;35007;-82
2021/12/04 04:05:02;;;;;;;28.00;13.38;;;;;;;-5.46;100.00;100133.75;6700040;26;34703;-82
2021/12/04 04:08:05;;;;;;;32.55;14.07;;;;;;;-5.51;100.00;100141.59;6705685;26;34423;-82
2021/12/04 04:11:08;;;;;;;30.40;14.13;;;;;;;-5.54;100.00;100145.97;6704589;26;35400;-83
2021/12/04 04:14:11;;;;;;;32.00;14.10;;;;;;;-5.46;100.00;100136.31;6702006;26;34258;-82
2021/12/04 04:17:13;;;;;;;29.17;12.82;;;;;;;-5.56;100.00;100134.88;6701800;26;34558;-82
2021/12/04 04:20:19;;;;;;;31.00;13.30;;;;;;;-5.64;100.00;100132.53;6700546;26;34502;-82
2021/12/04 04:23:22;;;;;;;27.77;13.65;;;;;;;-5.65;100.00;100108.47;6700998;26;35154;-82
2021/12/04 04:26:25;;;;;;;30.48;13.52;;;;;;;-5.70;100.00;100123.22;6700284;26;33753;-83
2021/12/04 04:29:32;;;;;;;29.92;14.50;;;;;;;-5.71;100.00;100124.13;6700226;26;34864;-82
2021/12/04 04:32:35;;;;;;;33.67;14.48;;;;;;;-5.67;100.00;100133.44;6700668;26;34815;-83
2021/12/04 04:35:38;;;;;;;33.15;14.45;;;;;;;-5.66;100.00;100140.28;6681779;26;34030;-83
2021/12/04 04:38:59;;;;;;;29.98;14.15;;;;;;;-5.70;100.00;100138.69;6700450;26;34743;-82
2021/12/04 04:57:31;;;;;;;30.88;14.82;;;;;;;-5.78;100.00;100145.75;6702765;26;34360;-82
2021/12/04 05:12:25;;;;;;;32.00;14.18;;;;;;;-5.80;100.00;100155.28;6700853;26;35684;-82
2021/12/04 05:15:53;;;;;;;33.75;14.48;;;;;;;-5.91;100.00;100146.09;6700532;26;34988;-82
2021/12/04 05:19:11;;;;;;;30.95;14.02;;;;;;;-5.96;100.00;100142.81;6700437;26;34243;-82
2021/12/04 05:22:14;;;;;;;31.33;13.37;;;;;;;-5.97;100.00;100142.84;6701758;26;35448;-82
2021/12/04 05:25:20;;;;;;;30.33;14.10;;;;;;;-5.97;100.00;100141.13;6702347;26;35398;-82
2021/12/04 05:28:26;;;;;;;27.80;13.38;;;;;;;-5.99;100.00;100136.91;6701978;26;34499;-82
2021/12/04 05:31:31;;;;;;;26.00;12.68;;;;;;;-6.04;100.00;100139.63;6701415;26;34158;-82
2021/12/04 05:34:34;;;;;;;31.35;13.68;;;;;;;-6.08;100.00;100138.00;6681794;26;34362;-82
2021/12/04 05:37:38;;;;;;;28.85;12.37;;;;;;;-6.06;100.00;100131.09;6701423;26;34018;-83
2021/12/04 05:40:42;;;;;;;28.87;12.55;;;;;;;-6.05;100.00;100132.78;6701328;26;34273;-82
2021/12/04 05:43:45;;;;;;;28.25;12.25;;;;;;;-6.05;100.00;100132.78;6701087;26;33906;-82
2021/12/04 05:47:00;;;;;;;31.52;13.55;;;;;;;-6.07;100.00;100137.12;6700981;26;35317;-82
2021/12/04 05:56:18;;;;;;;27.10;12.95;;;;;;;-6.10;100.00;100132.03;6700749;26;34530;-82
2021/12/04 05:59:30;;;;;;;26.10;12.75;;;;;;;-6.11;100.00;100122.63;6708627;26;34850;-82
2021/12/04 06:02:32;;;;;;;28.73;13.32;;;;;;;-6.13;100.00;100122.66;6700866;26;34230;-82
2021/12/04 06:05:36;;;;;;;32.47;13.62;;;;;;;-6.11;100.00;100127.75;6700421;26;34132;-82
2021/12/04 06:08:39;;;;;;;26.75;12.52;;;;;;;-6.07;100.00;100129.38;6701823;26;34537;-82
2021/12/04 06:11:43;;;;;;;29.37;13.35;;;;;;;-6.05;100.00;100113.00;6700446;26;33815;-83
2021/12/04 06:14:48;;;;;;;31.30;13.85;;;;;;;-6.05;100.00;100122.47;6701205;26;34596;-83
2021/12/04 06:17:55;;;;;;;28.65;12.70;;;;;;;-6.06;100.00;100116.47;6702496;26;34439;-84
2021/12/04 06:24:22;;;;;;;28.02;12.73;;;;;;;-5.97;100.00;100112.78;6701452;26;33871;-85
2021/12/04 06:27:25;;;;;;;32.08;12.80;;;;;;;-5.98;100.00;100116.22;6700458;26;34325;-85
2021/12/04 06:30:33;;;;;;;31.35;13.13;;;;;;;-5.95;100.00;100113.59;6700258;26;34599;-84
2021/12/04 06:33:38;;;;;;;30.70;13.57;;;;;;;-5.88;100.00;100119.41;6700182;26;34077;-85
2021/12/04 06:36:43;;;;;;;34.53;14.02;;;;;;;-5.87;100.00;100117.66;6699956;26;33667;-84
2021/12/04 06:39:46;;;;;;;34.53;16.37;;;;;;;-5.74;100.00;100106.16;6699698;26;34417;-84
2021/12/04 06:42:50;;;;;;;31.10;14.27;;;;;;;-5.67;100.00;100097.34;6699229;26;34957;-84
2021/12/04 06:46:05;;;;;;;31.12;14.32;;;;;;;-5.62;100.00;100105.81;6699974;26;33965;-85
2021/12/04 06:49:15;;;;;;;32.80;15.55;;;;;;;-5.58;100.00;100111.72;6699903;26;34522;-84
2021/12/04 06:52:23;;;;;;;;;;;;;;;-5.54;100.00;100104.75;6700316;26;34433;-84
2021/12/04 06:55:28;;;;;;;38.63;18.98;;;;;;;-5.39;100.00;100099.16;6702349;26;34459;-84
2021/12/04 06:58:35;;;;;;;36.97;18.10;;;;;;;-5.32;100.00;100098.06;6699758;26;33962;-84
2021/12/04 07:01:39;;;;;;;29.77;13.88;;;;;;;-5.10;100.00;100099.19;6699562;26;34441;-84
2021/12/04 07:04:45;;;;;;;33.35;13.60;;;;;;;-5.08;100.00;100110.28;6700016;26;34697;-83
2021/12/04 07:07:51;;;;;;;;;;;;;;;-5.11;100.00;100098.31;6701327;26;34425;-84
2021/12/04 07:10:54;;;;;;;29.95;12.65;;;;;;;-5.12;100.00;100088.88;6701579;26;34449;-83
2021/12/04 07:14:00;;;;;;;27.83;12.52;;;;;;;-5.11;100.00;100085.41;6702426;26;33806;-84
2021/12/04 07:17:05;;;;;;;30.08;13.20;;;;;;;-5.11;100.00;100072.50;6702244;26;34993;-83
2021/12/04 07:20:10;;;;;;;30.02;13.52;;;;;;;-5.12;100.00;100075.97;6703171;26;34710;-83
2021/12/04 07:23:12;;;;;;;33.35;14.30;;;;;;;-5.11;100.00;100080.25;6702489;26;34286;-84
2021/12/04 07:26:17;;;;;;;36.03;16.23;;;;;;;-4.98;100.00;100081.56;6702251;26;33914;-83
2021/12/04 07:29:20;;;;;;;32.60;15.07;;;;;;;-4.89;100.00;100079.59;6701630;26;34373;-83
2021/12/04 07:32:26;;;;;;;31.17;15.43;;;;;;;-4.82;100.00;100078.53;6703007;26;34986;-83
2021/12/04 07:35:32;;;;;;;31.30;14.77;;;;;;;-4.76;100.00;100070.56;6701705;26;34335;-84
2021/12/04 07:38:35;;;;;;;36.42;17.10;;;;;;;-4.69;100.00;100055.72;6703593;26;35075;-83
2021/12/04 07:41:42;;;;;;;37.67;17.60;;;;;;;-4.62;100.00;100061.53;6703260;26;34957;-84
2021/12/04 07:44:46;;;;;;;33.55;17.15;;;;;;;-4.59;100.00;100067.44;6701192;26;34925;-85
2021/12/04 07:47:49;;;;;;;34.42;17.02;;;;;;;-4.55;100.00;100056.12;6702304;26;34238;-84
2021/12/04 07:50:52;;;;;;;36.85;18.35;;;;;;;-4.57;100.00;100051.91;6701340;26;34158;-84
2021/12/04 07:53:57;;;;;;;38.95;18.10;;;;;;;-4.53;100.00;100045.72;6701516;26;34185;-84
2021/12/04 07:57:00;;;;;;;37.40;18.92;;;;;;;-4.45;100.00;100043.75;6704418;26;34443;-83
2021/12/04 08:00:10;;;;;;;37.15;19.00;;;;;;;-4.35;100.00;100047.72;6702109;26;34704;-83
2021/12/04 08:03:14;;;;;;;38.35;19.10;;;;;;;-4.27;100.00;100049.19;6702897;26;34177;-84
2021/12/04 08:06:17;;;;;;;40.05;20.25;;;;;;;-4.04;100.00;100043.19;6702122;26;34025;-84
2021/12/04 08:09:21;;;;;;;35.05;19.67;;;;;;;-4.02;100.00;100051.75;6701325;26;34198;-84
2021/12/04 08:12:23;;;;;;;37.92;20.17;;;;;;;-3.94;100.00;100044.53;6701767;26;34464;-84
2021/12/04 08:15:26;;;;;;;41.90;19.80;;;;;;;-3.88;100.00;100048.66;6701579;26;34526;-84
2021/12/04 08:18:32;;;;;;;37.95;21.02;;;;;;;-3.75;100.00;100043.91;6700623;26;34296;-83
2021/12/04 08:21:35;;;;;;;37.42;20.33;;;;;;;-3.65;100.00;100042.66;6700593;26;33880;-83
2021/12/04 08:24:38;;;;;;;37.97;19.77;;;;;;;-3.62;100.00;100050.31;6700800;26;34154;-83
2021/12/04 08:27:46;;;;;;;38.03;20.55;;;;;;;-3.54;100.00;100052.59;6705151;26;34214;-84
2021/12/04 08:30:50;;;;;;;40.53;21.58;;;;;;;-3.50;100.00;100053.34;6705097;26;35800;-84
2021/12/04 08:33:54;;;;;;;42.25;21.55;;;;;;;-3.39;100.00;100058.09;6703305;26;34068;-83
2021/12/04 08:36:56;;;;;;;46.67;22.75;;;;;;;-3.15;100.00;100044.22;6702772;26;36547;-83
2021/12/04 08:40:02;;;;;;;42.45;22.48;;;;;;;-3.02;100.00;100046.31;6701265;26;33655;-82
2021/12/04 08:43:05;;;;;;;42.40;22.90;;;;;;;-2.95;100.00;100045.16;6700399;26;34315;-82
2021/12/04 08:46:09;;;;;;;41.97;21.48;;;;;;;-2.81;100.00;100032.50;6700662;26;34169;-82
2021/12/04 08:49:12;;;;;;;40.17;21.98;;;;;;;-2.56;100.00;100030.66;6701254;26;33822;-82
2021/12/04 08:52:18;;;;;;;39.42;20.92;;;;;;;-2.29;100.00;100036.41;6700948;26;34967;-83
2021/12/04 08:55:23;;;;;;;40.53;21.65;;;;;;;-2.22;100.00;100030.06;6701294;26;34318;-82
2021/12/04 08:58:26;;;;;;;42.78;20.83;;;;;;;-2.22;100.00;100018.84;6700596;26;35510;-82
2021/12/04 09:01:33;;;;;;;41.40;21.85;;;;;;;-2.35;100.00;100028.91;6701798;26;34013;-82
2021/12/04 09:04:40;;;;;;;41.13;22.02;;;;;;;-2.35;100.00;100039.28;6703281;26;34509;-82
2021/12/04 09:07:47;;;;;;;39.35;21.12;;;;;;;-2.24;100.00;100031.88;6701504;26;34808;-83
2021/12/04 09:10:51;;;;;;;43.25;20.98;;;;;;;-2.09;100.00;100025.19;6702233;26;34478;-82
2021/12/04 09:13:54;;;;;;;38.30;22.30;;;;;;;-1.87;100.00;100025.09;6701200;26;34584;-82
2021/12/04 09:17:01;;;;;;;39.00;22.02;;;;;;;-1.76;100.00;100021.16;6702062;26;33980;-83
2021/12/04 09:20:06;;;;;;;42.22;22.52;;;;;;;-1.44;100.00;100008.47;6700656;26;34142;-84
2021/12/04 09:23:30;;;;;;;37.20;21.02;;;;;;;-1.18;100.00;100006.41;6703156;26;34614;-82
2021/12/04 09:36:57;;;;;;;42.13;22.87;;;;;;;-1.06;96.94;99974.62;6701791;26;34645;-82
2021/12/04 10:00:44;;;;;;;42.22;21.67;;;;;;;-0.38;93.15;99953.03;6700154;26;34070;-82
2021/12/04 10:14:37;;;;;;;32.75;15.73;;;;;;;0.07;90.74;99926.44;6699140;26;34071;-82
2021/12/04 10:18:29;;;;;;;33.65;16.50;;;;;;;0.36;87.26;99918.81;6700108;26;33583;-82
2021/12/04 10:34:40;;;;;;;31.58;14.30;;;;;;;0.40;83.40;99894.28;6700399;26;34029;-81
2021/12/04 10:37:50;;;;;;;35.42;15.88;;;;;;;0.43;82.09;99897.56;6698842;26;34424;-82
2021/12/04 10:40:54;;;;;;;33.20;15.70;;;;;;;0.75;83.12;99889.69;6680059;26;33978;-82
2021/12/04 10:44:09;;;;;;;33.88;15.70;;;;;;;0.70;81.23;99878.69;6699666;26;34563;-82
2021/12/04 10:47:21;;;;;;;34.17;16.02;;;;;;;0.77;81.00;99871.37;6699666;26;35062;-82
2021/12/04 10:53:47;;;;;;;30.75;14.52;;;;;;;0.91;76.90;99868.81;6702047;26;34589;-82
2021/12/04 10:57:31;;;;;;;27.35;13.10;;;;;;;0.99;78.33;99849.28;6702704;26;34102;-82
2021/12/04 11:00:53;;;;;;;31.27;13.90;;;;;;;0.76;76.96;99848.84;6701946;26;33917;-84
2021/12/04 11:04:10;;;;;;;26.37;13.93;;;;;;;0.91;78.17;99845.34;6703630;26;34117;-82
2021/12/04 11:44:05;;;;;;;23.70;10.32;;;;;;;0.58;70.02;99786.53;6700870;26;34337;-82
2021/12/04 11:47:08;;;;;;;27.40;10.82;;;;;;;0.71;69.28;99784.03;6700525;26;34384;-82
2021/12/04 11:50:30;;;;;;;26.08;11.15;;;;;;;1.12;71.70;99769.44;6701186;26;34622;-82
2021/12/04 11:53:36;;;;;;;21.80;9.27;;;;;;;1.39;68.28;99768.69;6701243;26;34351;-83
2021/12/04 11:56:39;;;;;;;22.73;9.25;;;;;;;1.45;65.60;99757.03;6701285;26;34164;-82
2021/12/04 11:59:44;;;;;;;21.77;9.00;;;;;;;1.54;66.10;99744.25;6702430;26;34493;-82
2021/12/04 12:03:10;;;;;;;22.87;9.30;;;;;;;1.62;64.92;99748.16;6700390;26;34118;-82
2021/12/04 12:06:16;;;;;;;21.77;8.60;;;;;;;1.80;63.74;99751.38;6699974;26;34060;-81
2021/12/04 12:09:27;;;;;;;21.35;8.30;;;;;;;1.41;62.96;99730.31;6700279;26;34305;-83
2021/12/04 12:12:42;;;;;;;21.95;8.75;;;;;;;1.44;64.20;99727.53;6700282;26;34891;-82
2021/12/04 12:15:57;;;;;;;22.65;8.73;;;;;;;1.34;64.01;99723.81;6700891;26;34863;-82
2021/12/04 12:19:14;;;;;;;24.12;8.75;;;;;;;1.24;64.07;99728.75;6683395;26;34436;-83
2021/12/04 12:32:35;;;;;;;24.08;9.45;;;;;;;0.78;66.65;99722.00;6700355;26;34640;-83
2021/12/04 12:39:05;;;;;;;22.67;10.20;;;;;;;0.64;68.07;99722.00;6702003;26;34283;-82
2021/12/04 12:42:07;;;;;;;22.40;10.57;;;;;;;0.47;67.95;99718.66;6700829;26;33992;-83
2021/12/04 12:45:32;;;;;;;24.85;10.43;;;;;;;0.36;68.61;99711.44;6701244;26;34076;-83
2021/12/04 12:48:46;;;;;;;28.02;11.95;;;;;;;0.50;69.23;99713.25;6701031;26;34578;-82
2021/12/04 12:51:55;;;;;;;27.13;11.77;;;;;;;0.57;69.01;99709.34;6699592;26;34465;-82
2021/12/04 12:54:59;;;;;;;27.42;12.73;;;;;;;0.70;68.08;99703.41;6703163;26;34220;-83
2021/12/04 12:58:31;;;;;;;27.87;12.40;;;;;;;0.70;68.26;99711.22;6700581;26;33687;-82
2021/12/04 13:12:23;;;;;;;27.77;13.00;;;;;;;0.69;69.77;99704.34;6707195;26;35466;-82
2021/12/04 13:15:38;;;;;;;25.48;11.88;;;;;;;0.59;68.33;99702.28;6703513;26;34569;-83
2021/12/04 13:18:45;;;;;;;23.23;9.95;;;;;;;0.50;70.80;99697.66;6702953;26;34730;-82
2021/12/04 13:21:51;;;;;;;23.67;9.13;;;;;;;0.44;68.99;99705.81;6701225;26;35303;-82
2021/12/04 13:24:59;;;;;;;26.15;9.88;;;;;;;0.33;68.86;99701.25;6703946;26;34941;-82
2021/12/04 13:28:28;;;;;;;23.33;9.63;;;;;;;0.28;68.79;99703.28;6693892;26;34668;-82
2021/12/04 13:31:37;;;;;;;22.33;9.23;;;;;;;0.36;69.40;99705.44;6700921;26;36965;-82
2021/12/04 13:34:40;;;;;;;21.37;8.73;;;;;;;0.35;69.33;99703.75;6701166;26;34416;-83
2021/12/04 13:37:48;;;;;;;19.27;8.57;;;;;;;0.49;70.34;99698.56;6701590;26;34297;-82
2021/12/04 13:40:53;;;;;;;24.37;9.15;;;;;;;0.68;71.20;99700.06;6700302;26;34376;-82
2021/12/04 13:43:59;;;;;;;23.65;9.25;;;;;;;0.87;68.93;99678.94;6699024;26;34051;-82
2021/12/04 13:47:08;;;;;;;20.20;8.43;;;;;;;1.04;68.46;99675.31;6699602;26;34140;-82
2021/12/04 13:53:36;;;;;;;22.20;8.90;;;;;;;1.04;67.47;99686.53;6707921;26;34624;-82
2021/12/04 13:56:39;;;;;;;19.27;8.73;;;;;;;0.94;68.74;99676.81;6701747;26;35160;-82
2021/12/04 13:59:42;;;;;;;22.98;9.73;;;;;;;0.84;69.01;99672.16;6699496;26;34979;-82
2021/12/04 14:02:48;;;;;;;22.50;9.45;;;;;;;0.62;68.31;99665.63;6699635;26;34351;-82
2021/12/04 14:05:51;;;;;;;20.67;9.55;;;;;;;0.51;69.50;99642.03;6699203;26;35103;-82
2021/12/04 14:09:04;;;;;;;20.58;9.25;;;;;;;0.40;71.55;99637.50;6700687;26;34524;-82
2021/12/04 14:12:08;;;;;;;21.83;9.73;;;;;;;0.31;73.14;99645.84;6700034;26;35520;-83
2021/12/04 14:15:13;;;;;;;23.85;9.88;;;;;;;0.25;72.69;99628.84;6701418;26;34152;-82
2021/12/04 14:18:25;;;;;;;22.30;9.82;;;;;;;0.14;72.31;99613.03;6699748;26;34446;-82
2021/12/04 14:21:28;;;;;;;21.58;9.48;;;;;;;0.09;73.37;99600.31;6700138;26;34325;-83
2021/12/04 14:24:42;;;;;;;21.30;9.48;;;;;;;-0.01;73.90;99589.59;6699015;26;34021;-82
2021/12/04 14:27:45;;;;;;;23.17;10.43;;;;;;;-0.06;75.42;99596.00;6699310;26;34795;-83
2021/12/04 14:30:49;;;;;;;27.08;10.32;;;;;;;-0.10;75.31;99595.34;6701616;26;34040;-82
2021/12/04 14:33:52;;;;;;;25.77;10.32;;;;;;;-0.14;74.77;99593.84;6705253;26;35531;-83
2021/12/04 14:37:11;;;;;;;22.02;9.80;;;;;;;-0.26;76.58;99599.75;6700082;26;34313;-83
2021/12/04 14:40:25;;;;;;;22.60;9.95;;;;;;;-0.42;77.73;99605.88;6699744;26;34705;-83
2021/12/04 14:43:49;;;;;;;24.58;10.30;;;;;;;-0.60;79.00;99605.16;6699106;26;35243;-83
2021/12/04 14:46:53;;;;;;;28.00;11.25;;;;;;;-0.74;79.85;99611.13;6699610;26;34529;-83
2021/12/04 14:50:00;;;;;;;23.02;10.63;;;;;;;-0.83;82.07;99607.28;6698401;26;34815;-83
2021/12/04 14:53:07;;;;;;;28.00;12.00;;;;;;;-0.80;84.67;99606.25;6699367;26;34509;-83
2021/12/04 14:56:11;;;;;;;26.27;12.05;;;;;;;-0.83;85.77;99602.09;6701688;26;34878;-82
2021/12/04 14:59:16;;;;;;;24.70;11.68;;;;;;;-0.94;87.04;99594.88;6701461;26;34157;-83
2021/12/04 15:02:22;;;;;;;26.73;12.45;;;;;;;-1.05;88.42;99594.63;6692383;26;198688;-83
2021/12/04 15:05:38;;;;;;;26.35;12.40;;;;;;;-1.11;90.22;99593.22;6700095;26;33446;-83
2021/12/04 15:08:53;;;;;;;26.65;12.75;;;;;;;-1.02;89.79;99604.84;6699149;26;34424;-83
2021/12/04 15:11:59;;;;;;;25.50;12.25;;;;;;;-1.03;89.93;99599.75;6698472;26;34235;-83
2021/12/04 15:15:08;;;;;;;27.80;12.65;;;;;;;-1.11;90.64;99613.16;6698335;26;34313;-83
2021/12/04 15:18:14;;;;;;;27.62;13.25;;;;;;;-1.23;92.03;99606.03;6699078;26;34500;-84
2021/12/04 15:21:18;;;;;;;28.27;13.50;;;;;;;-1.19;92.42;99617.94;6698547;26;35477;-83
2021/12/04 15:24:26;;;;;;;30.80;14.27;;;;;;;-1.27;93.03;99621.75;6699295;26;35019;-83
2021/12/04 15:27:29;;;;;;;29.15;14.82;;;;;;;-1.12;92.72;99635.66;6698648;26;34628;-82
2021/12/04 15:30:32;;;;;;;31.08;14.70;;;;;;;-1.07;92.07;99640.63;6698729;26;34452;-83
2021/12/04 15:33:49;;;;;;;31.10;15.35;;;;;;;-1.16;92.70;99635.91;6699804;26;34919;-82
2021/12/04 15:37:05;;;;;;;33.75;15.73;;;;;;;-1.32;93.84;99641.09;6700288;26;34966;-83
2021/12/04 15:40:44;;;;;;;31.90;15.07;;;;;;;-1.28;95.22;99638.25;6699863;26;35252;-83
2021/12/04 15:53:55;;;;;;;33.25;16.37;;;;;;;-1.26;97.64;99646.78;6700787;26;34596;-82
2021/12/04 15:56:57;;;;;;;32.55;16.85;;;;;;;-1.10;98.36;99640.78;6700615;26;34867;-82
2021/12/04 16:00:08;;;;;;;32.05;15.98;;;;;;;-1.11;98.38;99646.91;6700745;26;34083;-83
2021/12/04 16:03:16;;;;;;;32.63;17.48;;;;;;;-1.30;98.66;99647.03;6702587;26;34250;-83
2021/12/04 16:06:21;;;;;;;33.47;16.12;;;;;;;-1.37;100.00;99638.75;6700112;26;34534;-82
2021/12/04 16:09:33;;;;;;;34.88;17.12;;;;;;;-1.53;100.00;99640.47;6701128;26;34266;-82
2021/12/04 16:12:37;;;;;;;33.53;17.48;;;;;;;-1.62;100.00;99632.25;6701826;26;35773;-82
2021/12/04 16:15:39;;;;;;;35.60;18.05;;;;;;;-1.81;100.00;99623.75;6707754;26;35502;-82
2021/12/04 16:18:45;;;;;;;34.67;17.58;;;;;;;-1.71;100.00;99624.94;6701001;26;34182;-82
2021/12/04 16:21:47;;;;;;;36.42;18.80;;;;;;;-1.88;100.00;99618.88;6702252;26;34601;-83
2021/12/04 16:24:53;;;;;;;37.10;18.65;;;;;;;-1.88;100.00;99618.88;6701690;26;34638;-83
2021/12/04 16:37:56;;;;;;;36.17;17.42;;;;;;;-2.01;100.00;99617.84;6701682;26;34531;-82
2021/12/04 16:41:03;;;;;;;36.47;19.25;;;;;;;-2.11;100.00;99616.62;6700337;26;34751;-83
2021/12/04 16:44:13;;;;;;;36.78;18.20;;;;;;;-1.80;100.00;99607.28;6699819;26;34471;-83
2021/12/04 16:47:16;;;;;;;35.53;18.08;;;;;;;-1.68;100.00;99604.03;6700326;26;34934;-83
2021/12/04 16:50:28;;;;;;;38.17;18.27;;;;;;;-1.76;100.00;99601.03;6699706;26;34743;-83
2021/12/04 17:00:25;;;;;;;32.25;16.70;;;;;;;-1.79;100.00;99607.19;6700226;26;34885;-83
2021/12/04 17:03:28;;;;;;;33.33;17.23;;;;;;;-1.82;100.00;99599.59;6699989;26;34357;-83
2021/12/04 17:06:34;;;;;;;36.00;17.10;;;;;;;-1.92;100.00;99598.38;6700224;26;34007;-83
2021/12/04 17:09:38;;;;;;;33.90;16.98;;;;;;;-1.83;100.00;99599.63;6699303;26;34440;-82
2021/12/04 17:12:41;;;;;;;37.63;17.83;;;;;;;-1.87;100.00;99589.44;6700395;26;35453;-82
2021/12/04 17:15:47;;;;;;;32.40;17.42;;;;;;;-1.66;100.00;99591.84;6700058;26;34892;-82
2021/12/04 17:18:56;;;;;;;33.80;16.60;;;;;;;-1.82;100.00;99601.31;6700061;26;34848;-82
2021/12/04 17:21:59;;;;;;;31.83;16.90;;;;;;;-1.83;100.00;99597.06;6699959;26;34279;-82
2021/12/04 17:25:03;;;;;;;35.78;16.92;;;;;;;-1.67;100.00;99600.53;6701187;26;34938;-83
2021/12/04 17:28:08;;;;;;;35.38;16.58;;;;;;;-1.59;100.00;99600.97;6701060;26;35336;-82
2021/12/04 17:31:16;;;;;;;34.13;16.98;;;;;;;-1.50;100.00;99601.38;6700484;26;34537;-83
2021/12/04 17:34:19;;;;;;;36.92;16.87;;;;;;;-1.60;100.00;99586.31;6699881;26;34700;-82
2021/12/04 17:37:27;;;;;;;35.25;16.08;;;;;;;-1.60;100.00;99591.50;6700509;26;34699;-82